sensor_id;sensor_type;location;lat;lon;timestamp;P1;durP1;ratioP1;P2;durP2;ratioP2
22965;SDS011;11649;48.090;9.754;2023-12-20T00:01:43;22.45;;;9.32;;
22965;SDS011;11649;48.090;9.754;2023-12-20T00:04:10;11.25;;;5.90;;
22965;SDS011;11649;48.090;9.754;2023-12-20T00:06:37;5.10;;;3.05;;
22965;SDS011;11649;48.090;9.754;2023-12-20T00:09:04;6.47;;;3.80;;
22965;SDS011;11649;48.090;9.754;2023-12-20T00:11:31;23.42;;;11.68;;
22965;SDS011;11649;48.090;9.754;2023-12-20T00:13:58;8.13;;;5.10;;
22965;SDS011;11649;48.090;9.754;2023-12-20T00:16:24;16.05;;;8.73;;
22965;SDS011;11649;48.090;9.754;2023-12-20T00:18:52;9.38;;;5.80;;
22965;SDS011;11649;48.090;9.754;2023-12-20T00:21:19;5.18;;;3.22;;
22965;SDS011;11649;48.090;9.754;2023-12-20T00:23:45;4.25;;;2.80;;
22965;SDS011;11649;48.090;9.754;2023-12-20T00:26:12;3.60;;;2.30;;
22965;SDS011;11649;48.090;9.754;2023-12-20T00:28:39;4.28;;;2.75;;
22965;SDS011;11649;48.090;9.754;2023-12-20T00:31:06;3.55;;;2.33;;
22965;SDS011;11649;48.090;9.754;2023-12-20T00:33:33;6.00;;;2.42;;
22965;SDS011;11649;48.090;9.754;2023-12-20T00:36:00;3.55;;;2.33;;
22965;SDS011;11649;48.090;9.754;2023-12-20T00:38:27;3.42;;;2.58;;
22965;SDS011;11649;48.090;9.754;2023-12-20T00:40:53;3.70;;;2.50;;
22965;SDS011;11649;48.090;9.754;2023-12-20T00:43:20;3.30;;;2.65;;
22965;SDS011;11649;48.090;9.754;2023-12-20T00:45:47;3.22;;;2.35;;
22965;SDS011;11649;48.090;9.754;2023-12-20T00:48:14;3.20;;;2.40;;
22965;SDS011;11649;48.090;9.754;2023-12-20T00:50:41;3.47;;;2.80;;
22965;SDS011;11649;48.090;9.754;2023-12-20T00:53:08;3.65;;;2.70;;
22965;SDS011;11649;48.090;9.754;2023-12-20T00:55:35;6.75;;;2.97;;
22965;SDS011;11649;48.090;9.754;2023-12-20T00:58:01;4.50;;;3.00;;
22965;SDS011;11649;48.090;9.754;2023-12-20T01:00:28;4.35;;;3.13;;
22965;SDS011;11649;48.090;9.754;2023-12-20T01:02:55;4.57;;;3.15;;
22965;SDS011;11649;48.090;9.754;2023-12-20T01:05:22;4.93;;;3.80;;
22965;SDS011;11649;48.090;9.754;2023-12-20T01:07:49;5.63;;;3.30;;
22965;SDS011;11649;48.090;9.754;2023-12-20T01:10:16;7.32;;;3.72;;
22965;SDS011;11649;48.090;9.754;2023-12-20T01:12:43;5.25;;;3.55;;
22965;SDS011;11649;48.090;9.754;2023-12-20T01:15:10;4.20;;;2.95;;
22965;SDS011;11649;48.090;9.754;2023-12-20T01:17:37;6.03;;;3.30;;
22965;SDS011;11649;48.090;9.754;2023-12-20T01:20:15;4.85;;;3.65;;
22965;SDS011;11649;48.090;9.754;2023-12-20T01:22:43;6.95;;;3.65;;
22965;SDS011;11649;48.090;9.754;2023-12-20T01:25:12;4.28;;;3.40;;
22965;SDS011;11649;48.090;9.754;2023-12-20T01:27:39;4.40;;;3.20;;
22965;SDS011;11649;48.090;9.754;2023-12-20T01:30:06;4.95;;;3.20;;
22965;SDS011;11649;48.090;9.754;2023-12-20T01:32:33;5.20;;;3.20;;
22965;SDS011;11649;48.090;9.754;2023-12-20T01:35:00;5.00;;;3.33;;
22965;SDS011;11649;48.090;9.754;2023-12-20T01:37:28;4.38;;;3.22;;
22965;SDS011;11649;48.090;9.754;2023-12-20T01:39:56;4.55;;;2.88;;
22965;SDS011;11649;48.090;9.754;2023-12-20T01:42:23;4.38;;;3.08;;
22965;SDS011;11649;48.090;9.754;2023-12-20T01:44:49;3.80;;;2.80;;
22965;SDS011;11649;48.090;9.754;2023-12-20T01:47:16;3.92;;;3.10;;
22965;SDS011;11649;48.090;9.754;2023-12-20T01:49:43;5.40;;;3.30;;
22965;SDS011;11649;48.090;9.754;2023-12-20T01:52:10;4.93;;;3.17;;
22965;SDS011;11649;48.090;9.754;2023-12-20T01:54:38;4.75;;;3.13;;
22965;SDS011;11649;48.090;9.754;2023-12-20T01:57:08;4.57;;;3.17;;
22965;SDS011;11649;48.090;9.754;2023-12-20T01:59:35;8.57;;;3.53;;
22965;SDS011;11649;48.090;9.754;2023-12-20T02:02:03;4.82;;;3.30;;
22965;SDS011;11649;48.090;9.754;2023-12-20T02:04:30;4.70;;;3.20;;
22965;SDS011;11649;48.090;9.754;2023-12-20T02:06:57;4.97;;;3.58;;
22965;SDS011;11649;48.090;9.754;2023-12-20T02:09:26;4.82;;;3.30;;
22965;SDS011;11649;48.090;9.754;2023-12-20T02:11:54;4.88;;;3.05;;
22965;SDS011;11649;48.090;9.754;2023-12-20T02:14:20;5.63;;;3.50;;
22965;SDS011;11649;48.090;9.754;2023-12-20T02:16:47;4.40;;;3.20;;
22965;SDS011;11649;48.090;9.754;2023-12-20T02:19:14;6.80;;;3.40;;
22965;SDS011;11649;48.090;9.754;2023-12-20T02:21:43;5.13;;;3.33;;
22965;SDS011;11649;48.090;9.754;2023-12-20T02:24:10;5.70;;;3.38;;
22965;SDS011;11649;48.090;9.754;2023-12-20T02:26:37;4.50;;;3.05;;
22965;SDS011;11649;48.090;9.754;2023-12-20T02:29:04;6.20;;;3.10;;
22965;SDS011;11649;48.090;9.754;2023-12-20T02:31:31;4.03;;;2.97;;
22965;SDS011;11649;48.090;9.754;2023-12-20T02:33:58;4.85;;;3.20;;
22965;SDS011;11649;48.090;9.754;2023-12-20T02:36:25;5.00;;;2.85;;
22965;SDS011;11649;48.090;9.754;2023-12-20T02:38:52;4.55;;;3.20;;
22965;SDS011;11649;48.090;9.754;2023-12-20T02:41:19;4.80;;;2.90;;
22965;SDS011;11649;48.090;9.754;2023-12-20T02:43:46;4.38;;;3.08;;
22965;SDS011;11649;48.090;9.754;2023-12-20T02:46:13;3.60;;;2.92;;
22965;SDS011;11649;48.090;9.754;2023-12-20T02:48:41;3.75;;;3.00;;
22965;SDS011;11649;48.090;9.754;2023-12-20T02:51:08;4.03;;;3.08;;
22965;SDS011;11649;48.090;9.754;2023-12-20T02:53:35;4.47;;;3.13;;
22965;SDS011;11649;48.090;9.754;2023-12-20T02:56:02;4.40;;;2.90;;
22965;SDS011;11649;48.090;9.754;2023-12-20T02:58:29;4.90;;;3.13;;
22965;SDS011;11649;48.090;9.754;2023-12-20T03:00:55;4.22;;;2.95;;
22965;SDS011;11649;48.090;9.754;2023-12-20T03:03:22;4.40;;;2.90;;
22965;SDS011;11649;48.090;9.754;2023-12-20T03:05:49;5.10;;;3.17;;
22965;SDS011;11649;48.090;9.754;2023-12-20T03:08:16;3.80;;;2.72;;
22965;SDS011;11649;48.090;9.754;2023-12-20T03:10:42;3.58;;;2.95;;
22965;SDS011;11649;48.090;9.754;2023-12-20T03:13:10;3.92;;;2.92;;
22965;SDS011;11649;48.090;9.754;2023-12-20T03:15:36;4.32;;;3.05;;
22965;SDS011;11649;48.090;9.754;2023-12-20T03:18:03;4.43;;;3.03;;
22965;SDS011;11649;48.090;9.754;2023-12-20T03:20:30;3.92;;;2.80;;
22965;SDS011;11649;48.090;9.754;2023-12-20T03:23:00;3.78;;;2.67;;
22965;SDS011;11649;48.090;9.754;2023-12-20T03:25:27;4.95;;;3.28;;
22965;SDS011;11649;48.090;9.754;2023-12-20T03:27:54;5.40;;;3.03;;
22965;SDS011;11649;48.090;9.754;2023-12-20T03:30:21;4.68;;;3.13;;
22965;SDS011;11649;48.090;9.754;2023-12-20T03:32:48;4.13;;;2.95;;
22965;SDS011;11649;48.090;9.754;2023-12-20T03:35:14;4.35;;;2.90;;
22965;SDS011;11649;48.090;9.754;2023-12-20T03:37:41;4.28;;;2.92;;
22965;SDS011;11649;48.090;9.754;2023-12-20T03:40:08;4.18;;;3.00;;
22965;SDS011;11649;48.090;9.754;2023-12-20T03:42:36;3.63;;;2.85;;
22965;SDS011;11649;48.090;9.754;2023-12-20T03:45:02;3.40;;;2.85;;
22965;SDS011;11649;48.090;9.754;2023-12-20T03:47:29;5.15;;;3.30;;
22965;SDS011;11649;48.090;9.754;2023-12-20T03:49:56;4.15;;;3.05;;
22965;SDS011;11649;48.090;9.754;2023-12-20T03:52:23;4.63;;;3.05;;
22965;SDS011;11649;48.090;9.754;2023-12-20T03:54:50;4.20;;;2.95;;
22965;SDS011;11649;48.090;9.754;2023-12-20T03:57:17;3.75;;;2.80;;
22965;SDS011;11649;48.090;9.754;2023-12-20T03:59:44;4.68;;;2.92;;
22965;SDS011;11649;48.090;9.754;2023-12-20T04:02:10;4.18;;;2.97;;
22965;SDS011;11649;48.090;9.754;2023-12-20T04:04:37;3.80;;;2.92;;
22965;SDS011;11649;48.090;9.754;2023-12-20T04:07:04;2.90;;;2.42;;
22965;SDS011;11649;48.090;9.754;2023-12-20T04:09:31;5.35;;;2.92;;
22965;SDS011;11649;48.090;9.754;2023-12-20T04:11:58;6.63;;;3.58;;
22965;SDS011;11649;48.090;9.754;2023-12-20T04:14:25;5.43;;;3.50;;
22965;SDS011;11649;48.090;9.754;2023-12-20T04:16:52;5.63;;;3.72;;
22965;SDS011;11649;48.090;9.754;2023-12-20T04:19:19;5.32;;;3.38;;
22965;SDS011;11649;48.090;9.754;2023-12-20T04:21:51;6.45;;;3.90;;
22965;SDS011;11649;48.090;9.754;2023-12-20T04:24:17;6.38;;;3.65;;
22965;SDS011;11649;48.090;9.754;2023-12-20T04:26:44;6.22;;;3.70;;
22965;SDS011;11649;48.090;9.754;2023-12-20T04:29:11;5.00;;;3.20;;
22965;SDS011;11649;48.090;9.754;2023-12-20T04:31:38;6.57;;;3.65;;
22965;SDS011;11649;48.090;9.754;2023-12-20T04:34:05;5.70;;;4.10;;
22965;SDS011;11649;48.090;9.754;2023-12-20T04:36:31;7.82;;;5.28;;
22965;SDS011;11649;48.090;9.754;2023-12-20T04:39:01;8.95;;;5.35;;
22965;SDS011;11649;48.090;9.754;2023-12-20T04:41:31;7.68;;;5.18;;
22965;SDS011;11649;48.090;9.754;2023-12-20T04:43:58;8.73;;;4.85;;
22965;SDS011;11649;48.090;9.754;2023-12-20T04:46:25;8.35;;;4.93;;
22965;SDS011;11649;48.090;9.754;2023-12-20T04:48:53;5.82;;;4.20;;
22965;SDS011;11649;48.090;9.754;2023-12-20T04:51:23;8.27;;;5.30;;
22965;SDS011;11649;48.090;9.754;2023-12-20T04:53:52;10.52;;;5.32;;
22965;SDS011;11649;48.090;9.754;2023-12-20T04:56:19;5.13;;;3.70;;
22965;SDS011;11649;48.090;9.754;2023-12-20T04:58:46;5.63;;;3.70;;
22965;SDS011;11649;48.090;9.754;2023-12-20T05:01:13;5.45;;;3.60;;
22965;SDS011;11649;48.090;9.754;2023-12-20T05:03:40;7.00;;;3.78;;
22965;SDS011;11649;48.090;9.754;2023-12-20T05:06:10;5.78;;;3.90;;
22965;SDS011;11649;48.090;9.754;2023-12-20T05:08:37;5.60;;;4.10;;
22965;SDS011;11649;48.090;9.754;2023-12-20T05:11:05;6.28;;;4.35;;
22965;SDS011;11649;48.090;9.754;2023-12-20T05:13:32;6.72;;;4.07;;
22965;SDS011;11649;48.090;9.754;2023-12-20T05:16:12;6.85;;;4.00;;
22965;SDS011;11649;48.090;9.754;2023-12-20T05:18:43;5.57;;;4.05;;
22965;SDS011;11649;48.090;9.754;2023-12-20T05:21:11;6.30;;;4.53;;
22965;SDS011;11649;48.090;9.754;2023-12-20T05:23:38;6.47;;;4.75;;
22965;SDS011;11649;48.090;9.754;2023-12-20T05:26:05;8.68;;;5.35;;
22965;SDS011;11649;48.090;9.754;2023-12-20T05:28:32;6.95;;;5.00;;
22965;SDS011;11649;48.090;9.754;2023-12-20T05:30:59;6.88;;;4.97;;
22965;SDS011;11649;48.090;9.754;2023-12-20T05:33:27;8.25;;;5.00;;
22965;SDS011;11649;48.090;9.754;2023-12-20T05:35:54;7.95;;;5.47;;
22965;SDS011;11649;48.090;9.754;2023-12-20T05:38:24;8.15;;;5.30;;
22965;SDS011;11649;48.090;9.754;2023-12-20T05:40:50;6.55;;;4.55;;
22965;SDS011;11649;48.090;9.754;2023-12-20T05:43:17;8.77;;;5.00;;
22965;SDS011;11649;48.090;9.754;2023-12-20T05:45:44;9.80;;;6.35;;
22965;SDS011;11649;48.090;9.754;2023-12-20T05:48:11;7.50;;;5.40;;
22965;SDS011;11649;48.090;9.754;2023-12-20T05:50:38;6.93;;;4.90;;
22965;SDS011;11649;48.090;9.754;2023-12-20T05:53:05;8.20;;;5.05;;
22965;SDS011;11649;48.090;9.754;2023-12-20T05:55:32;6.60;;;4.70;;
22965;SDS011;11649;48.090;9.754;2023-12-20T05:57:59;7.10;;;5.22;;
22965;SDS011;11649;48.090;9.754;2023-12-20T06:00:27;6.47;;;4.38;;
22965;SDS011;11649;48.090;9.754;2023-12-20T06:02:54;6.88;;;4.60;;
22965;SDS011;11649;48.090;9.754;2023-12-20T06:05:21;8.05;;;4.85;;
22965;SDS011;11649;48.090;9.754;2023-12-20T06:07:48;8.35;;;5.15;;
22965;SDS011;11649;48.090;9.754;2023-12-20T06:10:17;7.07;;;4.93;;
22965;SDS011;11649;48.090;9.754;2023-12-20T06:12:44;6.90;;;5.00;;
22965;SDS011;11649;48.090;9.754;2023-12-20T06:15:13;7.53;;;5.00;;
22965;SDS011;11649;48.090;9.754;2023-12-20T06:17:40;6.40;;;4.88;;
22965;SDS011;11649;48.090;9.754;2023-12-20T06:20:07;6.60;;;4.80;;
22965;SDS011;11649;48.090;9.754;2023-12-20T06:22:38;6.75;;;4.65;;
22965;SDS011;11649;48.090;9.754;2023-12-20T06:25:05;7.43;;;4.88;;
22965;SDS011;11649;48.090;9.754;2023-12-20T06:27:33;7.65;;;5.22;;
22965;SDS011;11649;48.090;9.754;2023-12-20T06:30:00;6.97;;;4.53;;
22965;SDS011;11649;48.090;9.754;2023-12-20T06:32:26;9.07;;;4.93;;
22965;SDS011;11649;48.090;9.754;2023-12-20T06:34:55;8.57;;;4.90;;
22965;SDS011;11649;48.090;9.754;2023-12-20T06:37:22;5.80;;;4.63;;
22965;SDS011;11649;48.090;9.754;2023-12-20T06:39:49;6.10;;;4.63;;
22965;SDS011;11649;48.090;9.754;2023-12-20T06:42:16;6.07;;;4.45;;
22965;SDS011;11649;48.090;9.754;2023-12-20T06:44:42;6.35;;;4.30;;
22965;SDS011;11649;48.090;9.754;2023-12-20T06:47:09;7.00;;;5.03;;
22965;SDS011;11649;48.090;9.754;2023-12-20T06:49:36;7.88;;;5.65;;
22965;SDS011;11649;48.090;9.754;2023-12-20T06:52:03;8.10;;;6.13;;
22965;SDS011;11649;48.090;9.754;2023-12-20T06:54:30;5.85;;;4.22;;
22965;SDS011;11649;48.090;9.754;2023-12-20T06:56:57;5.35;;;4.13;;
22965;SDS011;11649;48.090;9.754;2023-12-20T06:59:23;5.38;;;3.63;;
22965;SDS011;11649;48.090;9.754;2023-12-20T07:01:50;5.50;;;3.70;;
22965;SDS011;11649;48.090;9.754;2023-12-20T07:04:17;7.22;;;4.32;;
22965;SDS011;11649;48.090;9.754;2023-12-20T07:06:48;5.43;;;3.78;;
22965;SDS011;11649;48.090;9.754;2023-12-20T07:09:18;5.78;;;4.20;;
22965;SDS011;11649;48.090;9.754;2023-12-20T07:11:45;6.20;;;4.43;;
22965;SDS011;11649;48.090;9.754;2023-12-20T07:14:12;7.25;;;4.63;;
22965;SDS011;11649;48.090;9.754;2023-12-20T07:16:38;10.18;;;5.78;;
22965;SDS011;11649;48.090;9.754;2023-12-20T07:19:06;9.80;;;5.78;;
22965;SDS011;11649;48.090;9.754;2023-12-20T07:21:33;7.65;;;5.18;;
22965;SDS011;11649;48.090;9.754;2023-12-20T07:24:00;9.05;;;5.50;;
22965;SDS011;11649;48.090;9.754;2023-12-20T07:26:27;6.18;;;4.50;;
22965;SDS011;11649;48.090;9.754;2023-12-20T07:28:54;5.88;;;4.00;;
22965;SDS011;11649;48.090;9.754;2023-12-20T07:31:21;4.93;;;3.83;;
22965;SDS011;11649;48.090;9.754;2023-12-20T07:33:48;5.57;;;3.97;;
22965;SDS011;11649;48.090;9.754;2023-12-20T07:36:15;4.95;;;3.65;;
22965;SDS011;11649;48.090;9.754;2023-12-20T07:38:41;7.05;;;4.25;;
22965;SDS011;11649;48.090;9.754;2023-12-20T07:41:10;5.18;;;3.78;;
22965;SDS011;11649;48.090;9.754;2023-12-20T07:43:37;6.20;;;3.75;;
22965;SDS011;11649;48.090;9.754;2023-12-20T07:46:07;5.00;;;3.85;;
22965;SDS011;11649;48.090;9.754;2023-12-20T07:48:35;5.60;;;4.07;;
22965;SDS011;11649;48.090;9.754;2023-12-20T07:51:02;5.00;;;3.60;;
22965;SDS011;11649;48.090;9.754;2023-12-20T07:53:30;6.28;;;3.90;;
22965;SDS011;11649;48.090;9.754;2023-12-20T07:55:57;5.65;;;3.85;;
22965;SDS011;11649;48.090;9.754;2023-12-20T07:58:23;5.68;;;3.65;;
22965;SDS011;11649;48.090;9.754;2023-12-20T08:01:06;6.50;;;4.10;;
22965;SDS011;11649;48.090;9.754;2023-12-20T08:03:33;6.55;;;3.97;;
22965;SDS011;11649;48.090;9.754;2023-12-20T08:06:00;6.60;;;4.32;;
22965;SDS011;11649;48.090;9.754;2023-12-20T08:08:27;6.03;;;4.03;;
22965;SDS011;11649;48.090;9.754;2023-12-20T08:10:54;7.03;;;4.47;;
22965;SDS011;11649;48.090;9.754;2023-12-20T08:13:21;7.28;;;4.88;;
22965;SDS011;11649;48.090;9.754;2023-12-20T08:15:52;7.43;;;5.07;;
22965;SDS011;11649;48.090;9.754;2023-12-20T08:18:19;9.27;;;5.50;;
22965;SDS011;11649;48.090;9.754;2023-12-20T08:20:46;7.70;;;5.53;;
22965;SDS011;11649;48.090;9.754;2023-12-20T08:23:15;8.45;;;5.18;;
22965;SDS011;11649;48.090;9.754;2023-12-20T08:25:42;10.35;;;6.35;;
22965;SDS011;11649;48.090;9.754;2023-12-20T08:28:08;10.32;;;6.68;;
22965;SDS011;11649;48.090;9.754;2023-12-20T08:30:35;9.93;;;5.03;;
22965;SDS011;11649;48.090;9.754;2023-12-20T08:33:02;10.18;;;5.95;;
22965;SDS011;11649;48.090;9.754;2023-12-20T08:35:29;10.73;;;6.05;;
22965;SDS011;11649;48.090;9.754;2023-12-20T08:37:56;6.85;;;5.05;;
22965;SDS011;11649;48.090;9.754;2023-12-20T08:40:23;8.40;;;5.65;;
22965;SDS011;11649;48.090;9.754;2023-12-20T08:42:50;14.43;;;8.00;;
22965;SDS011;11649;48.090;9.754;2023-12-20T08:45:17;8.77;;;5.70;;
22965;SDS011;11649;48.090;9.754;2023-12-20T08:47:44;16.85;;;8.63;;
22965;SDS011;11649;48.090;9.754;2023-12-20T08:50:19;4.85;;;3.80;;
22965;SDS011;11649;48.090;9.754;2023-12-20T08:52:46;5.30;;;3.83;;
22965;SDS011;11649;48.090;9.754;2023-12-20T08:55:13;5.45;;;4.05;;
22965;SDS011;11649;48.090;9.754;2023-12-20T08:57:43;6.25;;;4.18;;
22965;SDS011;11649;48.090;9.754;2023-12-20T09:00:11;6.45;;;4.68;;
22965;SDS011;11649;48.090;9.754;2023-12-20T09:02:38;5.07;;;3.38;;
22965;SDS011;11649;48.090;9.754;2023-12-20T09:05:05;11.25;;;5.30;;
22965;SDS011;11649;48.090;9.754;2023-12-20T09:07:32;6.57;;;4.60;;
22965;SDS011;11649;48.090;9.754;2023-12-20T09:09:59;5.50;;;4.22;;
22965;SDS011;11649;48.090;9.754;2023-12-20T09:12:26;7.53;;;5.05;;
22965;SDS011;11649;48.090;9.754;2023-12-20T09:14:53;6.47;;;4.70;;
22965;SDS011;11649;48.090;9.754;2023-12-20T09:17:20;4.40;;;3.00;;
22965;SDS011;11649;48.090;9.754;2023-12-20T09:19:49;8.43;;;5.03;;
22965;SDS011;11649;48.090;9.754;2023-12-20T09:22:16;8.63;;;5.70;;
22965;SDS011;11649;48.090;9.754;2023-12-20T09:24:43;5.78;;;4.10;;
22965;SDS011;11649;48.090;9.754;2023-12-20T09:27:11;4.65;;;3.38;;
22965;SDS011;11649;48.090;9.754;2023-12-20T09:29:37;5.28;;;3.60;;
22965;SDS011;11649;48.090;9.754;2023-12-20T09:32:04;4.25;;;3.08;;
22965;SDS011;11649;48.090;9.754;2023-12-20T09:34:31;6.22;;;4.35;;
22965;SDS011;11649;48.090;9.754;2023-12-20T09:36:58;2.95;;;2.50;;
22965;SDS011;11649;48.090;9.754;2023-12-20T09:39:25;4.40;;;3.30;;
22965;SDS011;11649;48.090;9.754;2023-12-20T09:42:02;4.45;;;2.97;;
22965;SDS011;11649;48.090;9.754;2023-12-20T09:44:30;2.38;;;2.08;;
22965;SDS011;11649;48.090;9.754;2023-12-20T09:46:58;3.85;;;2.47;;
22965;SDS011;11649;48.090;9.754;2023-12-20T09:49:27;3.05;;;2.55;;
22965;SDS011;11649;48.090;9.754;2023-12-20T09:51:54;3.25;;;2.50;;
22965;SDS011;11649;48.090;9.754;2023-12-20T09:54:22;3.70;;;2.40;;
22965;SDS011;11649;48.090;9.754;2023-12-20T09:56:50;3.45;;;2.42;;
22965;SDS011;11649;48.090;9.754;2023-12-20T09:59:17;3.47;;;2.60;;
22965;SDS011;11649;48.090;9.754;2023-12-20T10:01:51;4.88;;;2.88;;
22965;SDS011;11649;48.090;9.754;2023-12-20T10:04:24;3.65;;;2.50;;
22965;SDS011;11649;48.090;9.754;2023-12-20T10:06:56;2.78;;;2.10;;
22965;SDS011;11649;48.090;9.754;2023-12-20T10:09:23;3.10;;;2.30;;
22965;SDS011;11649;48.090;9.754;2023-12-20T10:11:50;2.50;;;2.10;;
22965;SDS011;11649;48.090;9.754;2023-12-20T10:14:20;3.60;;;2.25;;
22965;SDS011;11649;48.090;9.754;2023-12-20T10:16:49;2.95;;;2.20;;
22965;SDS011;11649;48.090;9.754;2023-12-20T10:19:16;4.18;;;2.53;;
22965;SDS011;11649;48.090;9.754;2023-12-20T10:21:44;2.97;;;2.38;;
22965;SDS011;11649;48.090;9.754;2023-12-20T10:24:16;2.90;;;2.25;;
22965;SDS011;11649;48.090;9.754;2023-12-20T10:26:43;4.05;;;2.85;;
22965;SDS011;11649;48.090;9.754;2023-12-20T10:29:10;3.28;;;2.50;;
22965;SDS011;11649;48.090;9.754;2023-12-20T10:31:37;3.90;;;2.38;;
22965;SDS011;11649;48.090;9.754;2023-12-20T10:34:08;3.38;;;2.63;;
22965;SDS011;11649;48.090;9.754;2023-12-20T10:36:35;2.10;;;1.58;;
22965;SDS011;11649;48.090;9.754;2023-12-20T10:39:02;1.77;;;1.40;;
22965;SDS011;11649;48.090;9.754;2023-12-20T10:41:33;2.22;;;1.38;;
22965;SDS011;11649;48.090;9.754;2023-12-20T10:44:02;1.30;;;1.10;;
22965;SDS011;11649;48.090;9.754;2023-12-20T10:46:31;1.85;;;1.50;;
22965;SDS011;11649;48.090;9.754;2023-12-20T10:54:01;1.90;;;1.30;;
22965;SDS011;11649;48.090;9.754;2023-12-20T10:56:28;2.08;;;1.45;;
22965;SDS011;11649;48.090;9.754;2023-12-20T10:58:59;1.55;;;1.20;;
22965;SDS011;11649;48.090;9.754;2023-12-20T11:01:29;2.95;;;1.33;;
22965;SDS011;11649;48.090;9.754;2023-12-20T11:03:56;1.52;;;1.20;;
22965;SDS011;11649;48.090;9.754;2023-12-20T11:09:13;1.30;;;1.05;;
22965;SDS011;11649;48.090;9.754;2023-12-20T11:14:41;1.30;;;1.10;;
22965;SDS011;11649;48.090;9.754;2023-12-20T11:17:16;1.92;;;1.40;;
22965;SDS011;11649;48.090;9.754;2023-12-20T11:22:30;1.90;;;1.58;;
22965;SDS011;11649;48.090;9.754;2023-12-20T11:24:59;1.40;;;1.20;;
22965;SDS011;11649;48.090;9.754;2023-12-20T11:27:31;1.45;;;1.20;;
22965;SDS011;11649;48.090;9.754;2023-12-20T11:29:58;1.85;;;1.25;;
22965;SDS011;11649;48.090;9.754;2023-12-20T11:34:55;0.63;;;0.52;;
22965;SDS011;11649;48.090;9.754;2023-12-20T11:37:25;0.70;;;0.70;;
22965;SDS011;11649;48.090;9.754;2023-12-20T11:40:05;0.60;;;0.60;;
22965;SDS011;11649;48.090;9.754;2023-12-20T11:42:39;0.70;;;0.60;;
22965;SDS011;11649;48.090;9.754;2023-12-20T11:45:24;0.60;;;0.60;;
22965;SDS011;11649;48.090;9.754;2023-12-20T11:47:55;0.65;;;0.50;;
22965;SDS011;11649;48.090;9.754;2023-12-20T11:50:24;0.60;;;0.60;;
22965;SDS011;11649;48.090;9.754;2023-12-20T11:52:51;0.57;;;0.50;;
22965;SDS011;11649;48.090;9.754;2023-12-20T11:55:20;0.40;;;0.40;;
22965;SDS011;11649;48.090;9.754;2023-12-20T11:57:47;0.95;;;0.40;;
22965;SDS011;11649;48.090;9.754;2023-12-20T12:00:14;0.57;;;0.43;;
22965;SDS011;11649;48.090;9.754;2023-12-20T12:02:41;0.85;;;0.77;;
22965;SDS011;11649;48.090;9.754;2023-12-20T12:05:13;0.35;;;0.35;;
22965;SDS011;11649;48.090;9.754;2023-12-20T12:07:40;0.77;;;0.50;;
22965;SDS011;11649;48.090;9.754;2023-12-20T12:10:07;0.95;;;0.50;;
22965;SDS011;11649;48.090;9.754;2023-12-20T12:12:34;0.65;;;0.50;;
22965;SDS011;11649;48.090;9.754;2023-12-20T12:15:01;0.47;;;0.47;;
22965;SDS011;11649;48.090;9.754;2023-12-20T12:17:29;0.70;;;0.70;;
22965;SDS011;11649;48.090;9.754;2023-12-20T12:20:04;1.13;;;0.80;;
22965;SDS011;11649;48.090;9.754;2023-12-20T12:22:32;0.73;;;0.70;;
22965;SDS011;11649;48.090;9.754;2023-12-20T12:25:08;0.90;;;0.70;;
22965;SDS011;11649;48.090;9.754;2023-12-20T12:27:39;0.68;;;0.68;;
22965;SDS011;11649;48.090;9.754;2023-12-20T12:30:09;0.70;;;0.50;;
22965;SDS011;11649;48.090;9.754;2023-12-20T12:32:36;0.55;;;0.40;;
22965;SDS011;11649;48.090;9.754;2023-12-20T12:35:03;0.40;;;0.40;;
22965;SDS011;11649;48.090;9.754;2023-12-20T12:37:37;0.40;;;0.40;;
22965;SDS011;11649;48.090;9.754;2023-12-20T12:40:11;1.20;;;0.55;;
22965;SDS011;11649;48.090;9.754;2023-12-20T12:42:40;1.08;;;0.98;;
22965;SDS011;11649;48.090;9.754;2023-12-20T12:45:08;1.20;;;0.73;;
22965;SDS011;11649;48.090;9.754;2023-12-20T12:47:36;0.82;;;0.68;;
22965;SDS011;11649;48.090;9.754;2023-12-20T12:50:03;1.30;;;0.88;;
22965;SDS011;11649;48.090;9.754;2023-12-20T12:52:30;1.27;;;0.85;;
22965;SDS011;11649;48.090;9.754;2023-12-20T12:54:57;0.88;;;0.82;;
22965;SDS011;11649;48.090;9.754;2023-12-20T12:57:24;1.30;;;1.10;;
22965;SDS011;11649;48.090;9.754;2023-12-20T12:59:51;1.30;;;0.80;;
22965;SDS011;11649;48.090;9.754;2023-12-20T13:02:18;1.00;;;0.90;;
22965;SDS011;11649;48.090;9.754;2023-12-20T13:04:44;1.15;;;0.90;;
22965;SDS011;11649;48.090;9.754;2023-12-20T13:07:12;1.20;;;0.82;;
22965;SDS011;11649;48.090;9.754;2023-12-20T13:09:39;1.30;;;0.90;;
22965;SDS011;11649;48.090;9.754;2023-12-20T13:12:06;1.55;;;1.00;;
22965;SDS011;11649;48.090;9.754;2023-12-20T13:14:34;1.95;;;1.05;;
22965;SDS011;11649;48.090;9.754;2023-12-20T13:17:01;1.42;;;0.90;;
22965;SDS011;11649;48.090;9.754;2023-12-20T13:19:30;1.45;;;0.75;;
22965;SDS011;11649;48.090;9.754;2023-12-20T13:21:57;1.48;;;0.90;;
22965;SDS011;11649;48.090;9.754;2023-12-20T13:24:26;1.00;;;0.90;;
22965;SDS011;11649;48.090;9.754;2023-12-20T13:26:53;1.83;;;0.90;;
22965;SDS011;11649;48.090;9.754;2023-12-20T13:29:20;1.15;;;0.75;;
22965;SDS011;11649;48.090;9.754;2023-12-20T13:31:47;1.00;;;0.70;;
22965;SDS011;11649;48.090;9.754;2023-12-20T13:34:15;1.00;;;0.90;;
22965;SDS011;11649;48.090;9.754;2023-12-20T13:36:57;1.50;;;0.70;;
22965;SDS011;11649;48.090;9.754;2023-12-20T13:39:24;1.25;;;1.00;;
22965;SDS011;11649;48.090;9.754;2023-12-20T13:41:51;2.15;;;0.90;;
22965;SDS011;11649;48.090;9.754;2023-12-20T13:44:18;1.48;;;0.85;;
22965;SDS011;11649;48.090;9.754;2023-12-20T13:46:45;1.10;;;0.77;;
22965;SDS011;11649;48.090;9.754;2023-12-20T13:49:12;1.30;;;0.90;;
22965;SDS011;11649;48.090;9.754;2023-12-20T13:51:40;1.83;;;0.90;;
22965;SDS011;11649;48.090;9.754;2023-12-20T13:54:07;1.98;;;0.90;;
22965;SDS011;11649;48.090;9.754;2023-12-20T13:56:34;0.93;;;0.70;;
22965;SDS011;11649;48.090;9.754;2023-12-20T13:59:13;1.42;;;0.75;;
22965;SDS011;11649;48.090;9.754;2023-12-20T14:01:41;2.22;;;0.73;;
22965;SDS011;11649;48.090;9.754;2023-12-20T14:04:08;3.47;;;0.85;;
22965;SDS011;11649;48.090;9.754;2023-12-20T14:06:34;1.38;;;0.90;;
22965;SDS011;11649;48.090;9.754;2023-12-20T14:09:01;1.98;;;0.98;;
22965;SDS011;11649;48.090;9.754;2023-12-20T14:11:29;2.70;;;1.08;;
22965;SDS011;11649;48.090;9.754;2023-12-20T14:13:56;4.90;;;1.00;;
22965;SDS011;11649;48.090;9.754;2023-12-20T14:16:24;2.72;;;1.00;;
22965;SDS011;11649;48.090;9.754;2023-12-20T14:18:51;1.85;;;0.90;;
22965;SDS011;11649;48.090;9.754;2023-12-20T14:21:18;1.33;;;1.02;;
22965;SDS011;11649;48.090;9.754;2023-12-20T14:23:46;1.25;;;0.80;;
22965;SDS011;11649;48.090;9.754;2023-12-20T14:26:14;1.20;;;0.95;;
22965;SDS011;11649;48.090;9.754;2023-12-20T14:28:42;1.88;;;1.10;;
22965;SDS011;11649;48.090;9.754;2023-12-20T14:31:09;1.58;;;0.95;;
22965;SDS011;11649;48.090;9.754;2023-12-20T14:33:39;3.05;;;1.10;;
22965;SDS011;11649;48.090;9.754;2023-12-20T14:36:07;1.90;;;1.20;;
22965;SDS011;11649;48.090;9.754;2023-12-20T14:38:34;2.40;;;1.20;;
22965;SDS011;11649;48.090;9.754;2023-12-20T14:41:01;1.48;;;1.10;;
22965;SDS011;11649;48.090;9.754;2023-12-20T14:43:30;1.55;;;0.90;;
22965;SDS011;11649;48.090;9.754;2023-12-20T14:45:57;3.85;;;1.25;;
22965;SDS011;11649;48.090;9.754;2023-12-20T14:51:09;2.80;;;1.00;;
22965;SDS011;11649;48.090;9.754;2023-12-20T14:53:37;2.65;;;1.20;;
22965;SDS011;11649;48.090;9.754;2023-12-20T14:56:05;1.77;;;1.20;;
22965;SDS011;11649;48.090;9.754;2023-12-20T14:58:32;1.55;;;1.00;;
22965;SDS011;11649;48.090;9.754;2023-12-20T15:01:00;3.00;;;0.82;;
22965;SDS011;11649;48.090;9.754;2023-12-20T15:03:27;3.35;;;0.90;;
22965;SDS011;11649;48.090;9.754;2023-12-20T15:05:55;2.28;;;1.00;;
22965;SDS011;11649;48.090;9.754;2023-12-20T15:08:25;2.88;;;1.10;;
22965;SDS011;11649;48.090;9.754;2023-12-20T15:10:52;1.50;;;1.00;;